Aeroporto :
LOGIN :

Iscrizione | Disclaimer

   EN    FR    IT 

 










Sommario :    VFR   VFR Marginale   IFR   IFR Intensivo   IFR Molto Intensivo
Visibilità : 
Base nubi : 
>= 8 km
>= 3000ft
5 / 8 km
1000 / 3000 ft
1500m / 5 km
500 / 1000 ft
800 / 1500m
200 / 500 ft
< 800m
< 200 ft
Simboli :   Temporali  Nebbia  Neve Forte  Precipitazioni Forti  Vento > 20 kt
SIGMETs :   Varie  Temporali  Ghiacco  Turbolenza  Onda orograficha  Ceneri Vulcaniche






- Altitudine del aeroporto : 287 ft


LFRL - Lanveoc Poulmic

ULTIMO METAR :
  • 061830Z AUTO 28010KT 9999 FEW006 SCT012 BKN019 11/10 Q1015

METARs OBSOLETI :
  • 061800Z AUTO 27013KT 9999 BKN031 OVC038 12/09 Q1015
  • 061730Z AUTO 26012KT 9999 OVC040 12/10 Q1014
  • 061700Z AUTO 26010KT 9999 OVC040 12/10 Q1014
  • 061630Z AUTO 26013KT 9999 BKN012 OVC039 12/10 Q1014
  • 061600Z AUTO 26013KT 9999 OVC014 12/10 Q1014

TAF TAF LFRL
Valido dal 06 a 12 ore il 07 a 12 ore UTC


061100Z 0612/0712 23015KT 4000 -RADZ OVC003
TEMPO 0612/0614 23020G30KT 2000 RA OVC002
PROB30
TEMPO 0612/0614 0800 -DZ FG VV///
BECMG 0614/0616 9999 NSW BKN008
PROB40
TEMPO 0616/0621 RA



MetMap, La meteo Aeronautica in un colpo d'occhio ! - Copyright ORBIFLY Dicembre 2007 - Disclaimer

ORBIFLY MET'MAP TEAM :

Programmazione e sviluppo : Alexandra Zaïnal
Concezione : Baudouin d'Aumeries
Aiuto per la programmazione : Marc-Olivier Méhu
Supporto tecnico e logistico : Manuel Goepfert
Aiuto per la traduzione : Arnaldo La Scala

Contatto : metmap@orbifly.com




FONTI E CREDITI :

   NOAA